LFBY 170819Z 31006KT 280V340 2000 -RA BR SCT006 BKN016 10/10 Q1026

ElémentsDécodage
LFBY Station météo située sur l'aérodrome de DAX Seyresse
170819Z émis le 17 du mois à 08h19 UTC
31006KT vent du 310°, 06 noeuds
280V340 vent de direction variable entre 280° et 340°
2000 visibilité horizontale de 2000 mètres
-RA faible pluie
BR brume
SCT006 nuages épars (3/8 à 4/8) à 600 pieds
BKN016 nuages morcelés (5/8 à 7/8) à 1600 pieds
10/10 température 10°C, point de rosée 10°C
 soit une humidité relative de 100%
Q1026 la pression au niveau de la mer (QNH) est de 1026 hPa